createdAt,value
2022-12-28T00:12:24.593Z,935.81
2022-12-28T00:27:26.643Z,936.07
2022-12-28T00:42:28.632Z,936.09
2022-12-28T00:57:30.558Z,936.24
2022-12-28T01:12:37.940Z,936.34
2022-12-28T01:27:40.304Z,936.44
2022-12-28T01:42:42.264Z,936.5
2022-12-28T01:57:44.164Z,936.63
2022-12-28T02:12:46.146Z,936.86
2022-12-28T02:27:48.156Z,937
2022-12-28T02:42:50.266Z,937.1
2022-12-28T02:57:52.209Z,937.28
2022-12-28T03:12:54.127Z,937.39
2022-12-28T03:27:56.356Z,937.38
2022-12-28T03:42:58.258Z,937.72
2022-12-28T03:58:00.302Z,937.79
2022-12-28T04:13:02.267Z,937.83
2022-12-28T04:28:04.226Z,938.03
2022-12-28T04:43:06.192Z,938.06
2022-12-28T04:58:08.090Z,938.19
2022-12-28T05:13:09.991Z,938.62
2022-12-28T05:28:12.211Z,938.94
2022-12-28T05:43:14.115Z,939.11
2022-12-28T05:58:16.060Z,939.33
2022-12-28T06:13:17.990Z,939.58
2022-12-28T06:28:19.987Z,939.94
2022-12-28T06:43:21.985Z,940.2
2022-12-28T06:58:23.919Z,940.46
2022-12-28T07:13:28.355Z,940.68
2022-12-28T07:28:30.471Z,940.9
2022-12-28T07:43:32.405Z,941.17
2022-12-28T07:58:34.367Z,941.39
2022-12-28T08:13:36.261Z,941.49
2022-12-28T08:28:38.431Z,941.77
2022-12-28T08:43:40.406Z,942.06
2022-12-28T08:58:42.471Z,942.31
2022-12-28T09:13:44.412Z,942.46
2022-12-28T09:28:46.382Z,942.72
2022-12-28T09:43:48.309Z,942.94
2022-12-28T09:58:50.224Z,943.21
2022-12-28T10:13:54.985Z,943.44
2022-12-28T10:28:57.433Z,943.59
2022-12-28T10:44:37.482Z,943.9
2022-12-28T10:59:40.792Z,944.13
2022-12-28T11:14:42.753Z,944.26
2022-12-28T11:29:44.744Z,944.34
2022-12-28T11:44:46.713Z,944.53
2022-12-28T11:59:48.713Z,944.77
2022-12-28T12:14:50.644Z,944.9
2022-12-28T12:29:52.589Z,945.06
2022-12-28T12:44:54.522Z,945.25
2022-12-28T12:59:56.731Z,945.54
2022-12-28T13:14:58.732Z,945.73
2022-12-28T13:30:00.673Z,945.98
2022-12-28T13:45:02.678Z,946.07
2022-12-28T14:00:04.576Z,946.31
2022-12-28T14:15:06.499Z,946.47
2022-12-28T14:30:08.499Z,946.74
2022-12-28T14:45:10.578Z,946.92
2022-12-28T15:00:13.688Z,947.13
2022-12-28T15:15:15.904Z,947.4
2022-12-28T15:30:20.619Z,947.73
2022-12-28T15:45:26.337Z,948.08
2022-12-28T16:00:28.350Z,948.31
2022-12-28T16:15:30.294Z,948.59
2022-12-28T16:30:32.249Z,948.99
2022-12-28T16:45:34.343Z,949.24
2022-12-28T17:00:36.387Z,949.43
2022-12-28T17:15:38.351Z,949.74
2022-12-28T17:30:40.457Z,950.02
2022-12-28T17:45:42.398Z,950.27
2022-12-28T18:00:44.418Z,950.44
2022-12-28T18:15:46.349Z,950.61
2022-12-28T18:30:48.509Z,950.71
2022-12-28T18:45:50.513Z,950.76
2022-12-28T19:00:52.491Z,950.75
2022-12-28T19:15:54.444Z,950.83
2022-12-28T19:31:02.676Z,950.95
2022-12-28T19:46:06.681Z,951.1
2022-12-28T20:01:08.789Z,951.25
2022-12-28T20:16:10.779Z,951.3
2022-12-28T20:31:12.916Z,951.48
2022-12-28T20:46:15.118Z,951.63
2022-12-28T21:01:17.380Z,951.72
2022-12-28T21:16:19.505Z,951.86
2022-12-28T21:31:21.603Z,952.02
2022-12-28T21:46:23.599Z,952.14
2022-12-28T22:01:25.728Z,952.19
2022-12-28T22:16:27.897Z,952.51
2022-12-28T22:31:29.939Z,952.78
2022-12-28T22:46:32.060Z,952.84
2022-12-28T23:01:34.184Z,953.04
2022-12-28T23:16:36.257Z,953.29
2022-12-28T23:31:38.314Z,953.43
2022-12-28T23:46:40.239Z,953.47
